sensor_id;sensor_type;location;lat;lon;timestamp;P1;durP1;ratioP1;P2;durP2;ratioP2
19329;SDS011;9799;48.214;16.388;2024-02-23T00:00:52;7.30;;;3.00;;
19329;SDS011;9799;48.214;16.388;2024-02-23T00:04:15;5.03;;;3.77;;
19329;SDS011;9799;48.214;16.388;2024-02-23T00:07:38;4.63;;;3.97;;
19329;SDS011;9799;48.214;16.388;2024-02-23T00:10:59;4.73;;;3.57;;
19329;SDS011;9799;48.214;16.388;2024-02-23T00:14:20;6.30;;;4.13;;
19329;SDS011;9799;48.214;16.388;2024-02-23T00:17:41;6.47;;;3.90;;
19329;SDS011;9799;48.214;16.388;2024-02-23T00:21:05;4.20;;;3.47;;
19329;SDS011;9799;48.214;16.388;2024-02-23T00:24:26;3.80;;;3.40;;
19329;SDS011;9799;48.214;16.388;2024-02-23T00:27:48;6.43;;;5.77;;
19329;SDS011;9799;48.214;16.388;2024-02-23T00:31:09;7.30;;;5.33;;
19329;SDS011;9799;48.214;16.388;2024-02-23T00:34:30;5.20;;;4.67;;
19329;SDS011;9799;48.214;16.388;2024-02-23T00:37:52;7.07;;;5.53;;
19329;SDS011;9799;48.214;16.388;2024-02-23T00:41:14;7.10;;;6.37;;
19329;SDS011;9799;48.214;16.388;2024-02-23T00:44:35;7.50;;;6.73;;
19329;SDS011;9799;48.214;16.388;2024-02-23T00:47:56;7.90;;;7.10;;
19329;SDS011;9799;48.214;16.388;2024-02-23T00:51:17;7.80;;;6.83;;
19329;SDS011;9799;48.214;16.388;2024-02-23T00:54:39;7.60;;;6.80;;
19329;SDS011;9799;48.214;16.388;2024-02-23T00:58:00;9.93;;;7.43;;
19329;SDS011;9799;48.214;16.388;2024-02-23T01:01:23;8.57;;;7.13;;
19329;SDS011;9799;48.214;16.388;2024-02-23T01:04:45;7.93;;;6.57;;
19329;SDS011;9799;48.214;16.388;2024-02-23T01:08:07;8.20;;;7.13;;
19329;SDS011;9799;48.214;16.388;2024-02-23T01:11:29;7.80;;;7.00;;
19329;SDS011;9799;48.214;16.388;2024-02-23T01:14:53;7.87;;;6.67;;
19329;SDS011;9799;48.214;16.388;2024-02-23T01:18:14;8.00;;;7.20;;
19329;SDS011;9799;48.214;16.388;2024-02-23T01:21:36;8.60;;;7.03;;
19329;SDS011;9799;48.214;16.388;2024-02-23T01:24:57;8.50;;;6.87;;
19329;SDS011;9799;48.214;16.388;2024-02-23T01:28:19;9.60;;;6.40;;
19329;SDS011;9799;48.214;16.388;2024-02-23T01:31:41;10.20;;;7.17;;
19329;SDS011;9799;48.214;16.388;2024-02-23T01:35:02;8.33;;;6.70;;
19329;SDS011;9799;48.214;16.388;2024-02-23T01:38:23;7.50;;;6.73;;
19329;SDS011;9799;48.214;16.388;2024-02-23T01:41:50;9.53;;;7.50;;
19329;SDS011;9799;48.214;16.388;2024-02-23T01:45:12;7.90;;;7.10;;
19329;SDS011;9799;48.214;16.388;2024-02-23T01:48:34;7.50;;;6.37;;
19329;SDS011;9799;48.214;16.388;2024-02-23T01:51:55;8.20;;;6.53;;
19329;SDS011;9799;48.214;16.388;2024-02-23T01:55:17;8.40;;;6.60;;
19329;SDS011;9799;48.214;16.388;2024-02-23T01:58:39;7.37;;;6.63;;
19329;SDS011;9799;48.214;16.388;2024-02-23T02:02:02;7.63;;;6.83;;
19329;SDS011;9799;48.214;16.388;2024-02-23T02:05:23;7.40;;;6.57;;
19329;SDS011;9799;48.214;16.388;2024-02-23T02:08:44;7.37;;;5.83;;
19329;SDS011;9799;48.214;16.388;2024-02-23T02:12:07;7.50;;;5.97;;
19329;SDS011;9799;48.214;16.388;2024-02-23T02:15:29;7.70;;;6.00;;
19329;SDS011;9799;48.214;16.388;2024-02-23T02:18:51;6.10;;;4.80;;
19329;SDS011;9799;48.214;16.388;2024-02-23T02:22:12;6.30;;;5.70;;
19329;SDS011;9799;48.214;16.388;2024-02-23T02:25:33;5.93;;;5.43;;
19329;SDS011;9799;48.214;16.388;2024-02-23T02:28:55;6.60;;;5.87;;
19329;SDS011;9799;48.214;16.388;2024-02-23T02:32:16;6.83;;;6.10;;
19329;SDS011;9799;48.214;16.388;2024-02-23T02:35:39;7.30;;;5.67;;
19329;SDS011;9799;48.214;16.388;2024-02-23T02:39:00;5.57;;;5.03;;
19329;SDS011;9799;48.214;16.388;2024-02-23T02:42:21;5.60;;;5.00;;
19329;SDS011;9799;48.214;16.388;2024-02-23T02:45:42;6.90;;;5.30;;
19329;SDS011;9799;48.214;16.388;2024-02-23T02:49:03;5.63;;;5.07;;
19329;SDS011;9799;48.214;16.388;2024-02-23T02:52:26;5.43;;;4.93;;
19329;SDS011;9799;48.214;16.388;2024-02-23T02:55:48;5.73;;;4.90;;
19329;SDS011;9799;48.214;16.388;2024-02-23T02:59:09;6.27;;;4.90;;
19329;SDS011;9799;48.214;16.388;2024-02-23T03:02:30;4.97;;;4.27;;
19329;SDS011;9799;48.214;16.388;2024-02-23T03:05:51;4.07;;;3.67;;
19329;SDS011;9799;48.214;16.388;2024-02-23T03:09:14;5.37;;;4.00;;
19329;SDS011;9799;48.214;16.388;2024-02-23T03:12:35;3.97;;;3.30;;
19329;SDS011;9799;48.214;16.388;2024-02-23T03:15:56;3.60;;;3.30;;
19329;SDS011;9799;48.214;16.388;2024-02-23T03:19:17;4.47;;;4.07;;
19329;SDS011;9799;48.214;16.388;2024-02-23T03:22:41;8.83;;;3.73;;
19329;SDS011;9799;48.214;16.388;2024-02-23T03:26:06;4.20;;;3.53;;
19329;SDS011;9799;48.214;16.388;2024-02-23T03:29:27;4.90;;;3.93;;
19329;SDS011;9799;48.214;16.388;2024-02-23T03:32:48;4.17;;;3.77;;
19329;SDS011;9799;48.214;16.388;2024-02-23T03:36:09;4.27;;;3.90;;
19329;SDS011;9799;48.214;16.388;2024-02-23T03:39:31;4.10;;;3.70;;
19329;SDS011;9799;48.214;16.388;2024-02-23T03:42:54;4.23;;;3.50;;
19329;SDS011;9799;48.214;16.388;2024-02-23T03:46:15;4.57;;;3.57;;
19329;SDS011;9799;48.214;16.388;2024-02-23T03:49:37;4.77;;;3.50;;
19329;SDS011;9799;48.214;16.388;2024-02-23T03:52:58;4.17;;;3.33;;
19329;SDS011;9799;48.214;16.388;2024-02-23T03:56:19;5.17;;;3.60;;
19329;SDS011;9799;48.214;16.388;2024-02-23T03:59:41;5.77;;;3.90;;
19329;SDS011;9799;48.214;16.388;2024-02-23T04:03:12;4.43;;;4.03;;
19329;SDS011;9799;48.214;16.388;2024-02-23T04:06:33;4.20;;;3.80;;
19329;SDS011;9799;48.214;16.388;2024-02-23T04:09:55;5.03;;;4.53;;
19329;SDS011;9799;48.214;16.388;2024-02-23T04:13:16;4.43;;;4.03;;
19329;SDS011;9799;48.214;16.388;2024-02-23T04:16:39;7.43;;;6.30;;
19329;SDS011;9799;48.214;16.388;2024-02-23T04:20:00;9.70;;;8.30;;
19329;SDS011;9799;48.214;16.388;2024-02-23T04:23:25;9.80;;;8.90;;
19329;SDS011;9799;48.214;16.388;2024-02-23T04:26:46;8.60;;;7.70;;
19329;SDS011;9799;48.214;16.388;2024-02-23T04:30:08;9.60;;;7.30;;
19329;SDS011;9799;48.214;16.388;2024-02-23T04:33:33;9.50;;;7.67;;
19329;SDS011;9799;48.214;16.388;2024-02-23T04:36:55;8.53;;;7.37;;
19329;SDS011;9799;48.214;16.388;2024-02-23T04:40:16;7.20;;;6.40;;
19329;SDS011;9799;48.214;16.388;2024-02-23T04:43:37;6.03;;;5.43;;
19329;SDS011;9799;48.214;16.388;2024-02-23T04:46:58;5.33;;;4.73;;
19329;SDS011;9799;48.214;16.388;2024-02-23T04:50:21;4.33;;;3.93;;
19329;SDS011;9799;48.214;16.388;2024-02-23T04:53:42;3.60;;;3.30;;
19329;SDS011;9799;48.214;16.388;2024-02-23T04:57:04;2.50;;;2.30;;
19329;SDS011;9799;48.214;16.388;2024-02-23T05:00:25;2.60;;;2.40;;
19329;SDS011;9799;48.214;16.388;2024-02-23T05:03:52;2.37;;;2.17;;
19329;SDS011;9799;48.214;16.388;2024-02-23T05:07:14;2.33;;;1.87;;
19329;SDS011;9799;48.214;16.388;2024-02-23T05:10:36;2.27;;;1.50;;
19329;SDS011;9799;48.214;16.388;2024-02-23T05:13:57;2.67;;;1.50;;
19329;SDS011;9799;48.214;16.388;2024-02-23T05:17:18;1.30;;;1.20;;
19329;SDS011;9799;48.214;16.388;2024-02-23T05:20:39;1.47;;;1.37;;
19329;SDS011;9799;48.214;16.388;2024-02-23T05:24:02;1.47;;;1.17;;
19329;SDS011;9799;48.214;16.388;2024-02-23T05:27:25;1.20;;;1.10;;
19329;SDS011;9799;48.214;16.388;2024-02-23T05:30:46;1.43;;;1.20;;
19329;SDS011;9799;48.214;16.388;2024-02-23T05:34:07;2.00;;;1.13;;
19329;SDS011;9799;48.214;16.388;2024-02-23T05:37:29;1.10;;;1.00;;
19329;SDS011;9799;48.214;16.388;2024-02-23T05:40:51;1.27;;;1.13;;
19329;SDS011;9799;48.214;16.388;2024-02-23T05:44:12;4.73;;;1.37;;
19329;SDS011;9799;48.214;16.388;2024-02-23T05:47:34;2.10;;;1.20;;
19329;SDS011;9799;48.214;16.388;2024-02-23T05:50:55;1.23;;;1.00;;
19329;SDS011;9799;48.214;16.388;2024-02-23T05:54:16;1.20;;;1.10;;
19329;SDS011;9799;48.214;16.388;2024-02-23T05:57:39;1.07;;;0.97;;
19329;SDS011;9799;48.214;16.388;2024-02-23T06:01:00;1.67;;;1.10;;
19329;SDS011;9799;48.214;16.388;2024-02-23T06:04:21;3.03;;;1.20;;
19329;SDS011;9799;48.214;16.388;2024-02-23T06:07:43;1.13;;;0.77;;
19329;SDS011;9799;48.214;16.388;2024-02-23T06:11:04;0.80;;;0.70;;
19329;SDS011;9799;48.214;16.388;2024-02-23T06:14:26;4.00;;;1.77;;
19329;SDS011;9799;48.214;16.388;2024-02-23T06:17:47;1.47;;;1.17;;
19329;SDS011;9799;48.214;16.388;2024-02-23T06:21:12;2.20;;;1.23;;
19329;SDS011;9799;48.214;16.388;2024-02-23T06:24:34;1.13;;;1.03;;
19329;SDS011;9799;48.214;16.388;2024-02-23T06:27:55;1.53;;;1.10;;
19329;SDS011;9799;48.214;16.388;2024-02-23T06:31:17;1.57;;;1.43;;
19329;SDS011;9799;48.214;16.388;2024-02-23T06:34:38;4.33;;;1.63;;
19329;SDS011;9799;48.214;16.388;2024-02-23T06:38:00;2.50;;;1.70;;
19329;SDS011;9799;48.214;16.388;2024-02-23T06:41:21;3.07;;;1.07;;
19329;SDS011;9799;48.214;16.388;2024-02-23T06:44:42;1.60;;;1.13;;
19329;SDS011;9799;48.214;16.388;2024-02-23T06:48:05;1.03;;;0.80;;
19329;SDS011;9799;48.214;16.388;2024-02-23T06:51:27;1.77;;;1.20;;
19329;SDS011;9799;48.214;16.388;2024-02-23T06:54:48;2.47;;;0.80;;
19329;SDS011;9799;48.214;16.388;2024-02-23T06:58:09;0.73;;;0.73;;
19329;SDS011;9799;48.214;16.388;2024-02-23T07:01:32;2.63;;;0.70;;
19329;SDS011;9799;48.214;16.388;2024-02-23T07:04:56;0.63;;;0.63;;
19329;SDS011;9799;48.214;16.388;2024-02-23T07:08:18;0.70;;;0.70;;
19329;SDS011;9799;48.214;16.388;2024-02-23T07:11:39;1.80;;;1.00;;
19329;SDS011;9799;48.214;16.388;2024-02-23T07:15:03;0.80;;;0.73;;
19329;SDS011;9799;48.214;16.388;2024-02-23T07:18:24;1.10;;;0.80;;
19329;SDS011;9799;48.214;16.388;2024-02-23T07:21:47;0.97;;;0.93;;
19329;SDS011;9799;48.214;16.388;2024-02-23T07:25:08;0.67;;;0.57;;
19329;SDS011;9799;48.214;16.388;2024-02-23T07:28:29;0.70;;;0.70;;
19329;SDS011;9799;48.214;16.388;2024-02-23T07:31:52;2.20;;;1.00;;
19329;SDS011;9799;48.214;16.388;2024-02-23T07:35:13;2.80;;;0.90;;
19329;SDS011;9799;48.214;16.388;2024-02-23T07:38:35;1.00;;;0.80;;
19329;SDS011;9799;48.214;16.388;2024-02-23T07:41:57;1.33;;;0.90;;
19329;SDS011;9799;48.214;16.388;2024-02-23T07:45:18;2.60;;;1.30;;
19329;SDS011;9799;48.214;16.388;2024-02-23T07:48:39;2.43;;;0.90;;
19329;SDS011;9799;48.214;16.388;2024-02-23T07:52:00;3.60;;;1.10;;
19329;SDS011;9799;48.214;16.388;2024-02-23T07:55:22;1.17;;;0.80;;
19329;SDS011;9799;48.214;16.388;2024-02-23T07:58:43;1.10;;;1.00;;
19329;SDS011;9799;48.214;16.388;2024-02-23T08:02:05;0.90;;;0.80;;
19329;SDS011;9799;48.214;16.388;2024-02-23T08:05:26;1.20;;;1.00;;
19329;SDS011;9799;48.214;16.388;2024-02-23T08:08:47;1.37;;;0.90;;
19329;SDS011;9799;48.214;16.388;2024-02-23T08:12:09;1.23;;;0.97;;
19329;SDS011;9799;48.214;16.388;2024-02-23T08:15:33;1.33;;;1.00;;
19329;SDS011;9799;48.214;16.388;2024-02-23T08:18:55;1.40;;;0.87;;
19329;SDS011;9799;48.214;16.388;2024-02-23T08:22:16;3.33;;;1.80;;
19329;SDS011;9799;48.214;16.388;2024-02-23T08:25:37;6.33;;;1.53;;
19329;SDS011;9799;48.214;16.388;2024-02-23T08:29:00;4.07;;;1.17;;
19329;SDS011;9799;48.214;16.388;2024-02-23T08:32:22;1.83;;;1.20;;
19329;SDS011;9799;48.214;16.388;2024-02-23T08:35:43;1.73;;;1.00;;
19329;SDS011;9799;48.214;16.388;2024-02-23T08:39:04;1.80;;;1.20;;
19329;SDS011;9799;48.214;16.388;2024-02-23T08:42:25;2.33;;;1.63;;
19329;SDS011;9799;48.214;16.388;2024-02-23T08:45:47;3.87;;;2.03;;
19329;SDS011;9799;48.214;16.388;2024-02-23T08:49:09;7.03;;;2.90;;
19329;SDS011;9799;48.214;16.388;2024-02-23T08:52:30;4.60;;;2.30;;
19329;SDS011;9799;48.214;16.388;2024-02-23T08:55:51;4.60;;;2.77;;
19329;SDS011;9799;48.214;16.388;2024-02-23T08:59:12;4.37;;;2.37;;
19329;SDS011;9799;48.214;16.388;2024-02-23T09:02:35;3.53;;;1.97;;
19329;SDS011;9799;48.214;16.388;2024-02-23T09:05:57;3.67;;;1.80;;
19329;SDS011;9799;48.214;16.388;2024-02-23T09:09:18;1.57;;;1.33;;
19329;SDS011;9799;48.214;16.388;2024-02-23T09:12:39;1.63;;;1.13;;
19329;SDS011;9799;48.214;16.388;2024-02-23T09:16:01;3.00;;;2.50;;
19329;SDS011;9799;48.214;16.388;2024-02-23T09:19:23;3.00;;;1.80;;
19329;SDS011;9799;48.214;16.388;2024-02-23T09:22:44;6.50;;;2.03;;
19329;SDS011;9799;48.214;16.388;2024-02-23T09:26:08;1.53;;;1.10;;
19329;SDS011;9799;48.214;16.388;2024-02-23T09:29:30;2.13;;;1.40;;
19329;SDS011;9799;48.214;16.388;2024-02-23T09:32:51;1.73;;;1.00;;
19329;SDS011;9799;48.214;16.388;2024-02-23T09:36:15;1.37;;;1.23;;
19329;SDS011;9799;48.214;16.388;2024-02-23T09:39:36;5.43;;;2.97;;
19329;SDS011;9799;48.214;16.388;2024-02-23T09:42:57;3.03;;;1.60;;
19329;SDS011;9799;48.214;16.388;2024-02-23T09:46:19;2.23;;;1.83;;
19329;SDS011;9799;48.214;16.388;2024-02-23T09:49:41;1.83;;;1.60;;
19329;SDS011;9799;48.214;16.388;2024-02-23T09:53:04;8.23;;;1.60;;
19329;SDS011;9799;48.214;16.388;2024-02-23T09:56:28;2.00;;;1.13;;
19329;SDS011;9799;48.214;16.388;2024-02-23T09:59:49;1.90;;;1.03;;
19329;SDS011;9799;48.214;16.388;2024-02-23T10:03:11;4.17;;;1.27;;
19329;SDS011;9799;48.214;16.388;2024-02-23T10:06:32;2.00;;;1.43;;
19329;SDS011;9799;48.214;16.388;2024-02-23T10:09:54;2.10;;;0.90;;
19329;SDS011;9799;48.214;16.388;2024-02-23T10:13:17;3.17;;;1.23;;
19329;SDS011;9799;48.214;16.388;2024-02-23T10:16:40;1.17;;;1.00;;
19329;SDS011;9799;48.214;16.388;2024-02-23T10:20:01;2.07;;;1.10;;
19329;SDS011;9799;48.214;16.388;2024-02-23T10:23:23;1.37;;;1.10;;
19329;SDS011;9799;48.214;16.388;2024-02-23T10:26:46;1.70;;;1.10;;
19329;SDS011;9799;48.214;16.388;2024-02-23T10:30:07;4.50;;;1.20;;
19329;SDS011;9799;48.214;16.388;2024-02-23T10:33:30;4.47;;;2.83;;
19329;SDS011;9799;48.214;16.388;2024-02-23T10:36:52;2.37;;;1.37;;
19329;SDS011;9799;48.214;16.388;2024-02-23T10:40:14;2.53;;;1.43;;
19329;SDS011;9799;48.214;16.388;2024-02-23T10:43:40;1.70;;;1.53;;
19329;SDS011;9799;48.214;16.388;2024-02-23T10:47:04;2.20;;;1.43;;
19329;SDS011;9799;48.214;16.388;2024-02-23T10:50:25;3.13;;;1.30;;
19329;SDS011;9799;48.214;16.388;2024-02-23T10:53:48;1.93;;;1.73;;
19329;SDS011;9799;48.214;16.388;2024-02-23T10:57:09;4.60;;;1.70;;
19329;SDS011;9799;48.214;16.388;2024-02-23T11:00:34;2.80;;;1.77;;
19329;SDS011;9799;48.214;16.388;2024-02-23T11:03:55;3.37;;;1.80;;
19329;SDS011;9799;48.214;16.388;2024-02-23T11:07:18;2.33;;;1.87;;
19329;SDS011;9799;48.214;16.388;2024-02-23T11:10:48;1.63;;;1.20;;
19329;SDS011;9799;48.214;16.388;2024-02-23T11:14:10;1.40;;;1.13;;
19329;SDS011;9799;48.214;16.388;2024-02-23T11:17:33;1.50;;;1.17;;
19329;SDS011;9799;48.214;16.388;2024-02-23T11:20:56;4.13;;;2.73;;
19329;SDS011;9799;48.214;16.388;2024-02-23T11:24:20;2.40;;;1.43;;
19329;SDS011;9799;48.214;16.388;2024-02-23T11:27:48;1.70;;;1.60;;
19329;SDS011;9799;48.214;16.388;2024-02-23T11:31:11;1.60;;;1.50;;
19329;SDS011;9799;48.214;16.388;2024-02-23T11:34:34;2.70;;;1.77;;
19329;SDS011;9799;48.214;16.388;2024-02-23T11:37:56;2.17;;;1.30;;
19329;SDS011;9799;48.214;16.388;2024-02-23T11:41:20;2.80;;;1.63;;
19329;SDS011;9799;48.214;16.388;2024-02-23T11:44:42;2.00;;;1.33;;
19329;SDS011;9799;48.214;16.388;2024-02-23T11:48:05;2.10;;;1.60;;
19329;SDS011;9799;48.214;16.388;2024-02-23T11:51:28;1.90;;;1.40;;
19329;SDS011;9799;48.214;16.388;2024-02-23T11:54:50;1.40;;;1.30;;
19329;SDS011;9799;48.214;16.388;2024-02-23T11:58:11;3.30;;;1.90;;
19329;SDS011;9799;48.214;16.388;2024-02-23T12:01:32;1.87;;;1.77;;
19329;SDS011;9799;48.214;16.388;2024-02-23T12:04:54;2.03;;;1.57;;
19329;SDS011;9799;48.214;16.388;2024-02-23T12:08:16;2.30;;;1.43;;
19329;SDS011;9799;48.214;16.388;2024-02-23T12:11:38;4.13;;;1.50;;
19329;SDS011;9799;48.214;16.388;2024-02-23T12:15:00;5.60;;;1.90;;
19329;SDS011;9799;48.214;16.388;2024-02-23T12:18:22;2.60;;;1.77;;
19329;SDS011;9799;48.214;16.388;2024-02-23T12:21:45;1.53;;;1.23;;
19329;SDS011;9799;48.214;16.388;2024-02-23T12:25:08;1.90;;;1.60;;
19329;SDS011;9799;48.214;16.388;2024-02-23T12:28:29;3.17;;;1.77;;
19329;SDS011;9799;48.214;16.388;2024-02-23T12:31:50;3.47;;;2.00;;
19329;SDS011;9799;48.214;16.388;2024-02-23T12:35:11;2.43;;;1.93;;
19329;SDS011;9799;48.214;16.388;2024-02-23T12:38:33;1.93;;;1.67;;
19329;SDS011;9799;48.214;16.388;2024-02-23T12:41:56;2.70;;;1.77;;
19329;SDS011;9799;48.214;16.388;2024-02-23T12:45:18;3.37;;;1.70;;
19329;SDS011;9799;48.214;16.388;2024-02-23T12:48:39;1.80;;;1.70;;
19329;SDS011;9799;48.214;16.388;2024-02-23T12:52:00;1.70;;;1.20;;
19329;SDS011;9799;48.214;16.388;2024-02-23T12:55:21;2.27;;;1.40;;
19329;SDS011;9799;48.214;16.388;2024-02-23T12:58:44;2.63;;;1.70;;
19329;SDS011;9799;48.214;16.388;2024-02-23T13:02:05;1.83;;;1.70;;
19329;SDS011;9799;48.214;16.388;2024-02-23T13:05:29;2.43;;;2.00;;
19329;SDS011;9799;48.214;16.388;2024-02-23T13:08:50;1.97;;;1.57;;
19329;SDS011;9799;48.214;16.388;2024-02-23T13:12:12;4.33;;;1.57;;
19329;SDS011;9799;48.214;16.388;2024-02-23T13:15:34;2.23;;;1.83;;
19329;SDS011;9799;48.214;16.388;2024-02-23T13:18:57;3.10;;;1.50;;
19329;SDS011;9799;48.214;16.388;2024-02-23T13:22:18;2.57;;;1.60;;
19329;SDS011;9799;48.214;16.388;2024-02-23T13:25:39;3.37;;;1.80;;
19329;SDS011;9799;48.214;16.388;2024-02-23T13:29:01;4.03;;;1.70;;
19329;SDS011;9799;48.214;16.388;2024-02-23T13:32:24;3.30;;;2.27;;
19329;SDS011;9799;48.214;16.388;2024-02-23T13:35:45;6.33;;;1.57;;
19329;SDS011;9799;48.214;16.388;2024-02-23T13:39:07;3.33;;;2.97;;
19329;SDS011;9799;48.214;16.388;2024-02-23T13:42:28;2.20;;;1.93;;
19329;SDS011;9799;48.214;16.388;2024-02-23T13:45:49;1.97;;;1.60;;
19329;SDS011;9799;48.214;16.388;2024-02-23T13:49:12;2.03;;;1.83;;
19329;SDS011;9799;48.214;16.388;2024-02-23T13:52:34;3.70;;;1.60;;
19329;SDS011;9799;48.214;16.388;2024-02-23T13:55:55;1.63;;;1.50;;
19329;SDS011;9799;48.214;16.388;2024-02-23T13:59:16;3.40;;;3.10;;
19329;SDS011;9799;48.214;16.388;2024-02-23T14:02:37;4.87;;;3.57;;
19329;SDS011;9799;48.214;16.388;2024-02-23T14:06:01;2.93;;;2.20;;
19329;SDS011;9799;48.214;16.388;2024-02-23T14:09:22;2.13;;;1.80;;
19329;SDS011;9799;48.214;16.388;2024-02-23T14:12:44;2.10;;;1.90;;
19329;SDS011;9799;48.214;16.388;2024-02-23T14:16:05;1.97;;;1.87;;
19329;SDS011;9799;48.214;16.388;2024-02-23T14:19:26;3.00;;;2.10;;
19329;SDS011;9799;48.214;16.388;2024-02-23T14:22:48;2.73;;;2.00;;
19329;SDS011;9799;48.214;16.388;2024-02-23T14:26:12;3.50;;;2.40;;
19329;SDS011;9799;48.214;16.388;2024-02-23T14:29:33;5.60;;;2.37;;
19329;SDS011;9799;48.214;16.388;2024-02-23T14:32:54;2.60;;;2.40;;
19329;SDS011;9799;48.214;16.388;2024-02-23T14:36:15;2.93;;;2.47;;
19329;SDS011;9799;48.214;16.388;2024-02-23T14:39:37;2.97;;;2.33;;
19329;SDS011;9799;48.214;16.388;2024-02-23T14:42:58;3.30;;;2.30;;
19329;SDS011;9799;48.214;16.388;2024-02-23T14:46:20;2.40;;;2.20;;
19329;SDS011;9799;48.214;16.388;2024-02-23T14:49:41;3.53;;;2.50;;
19329;SDS011;9799;48.214;16.388;2024-02-23T14:53:02;3.03;;;2.77;;
19329;SDS011;9799;48.214;16.388;2024-02-23T14:56:25;4.73;;;3.33;;
19329;SDS011;9799;48.214;16.388;2024-02-23T14:59:46;4.50;;;3.03;;
19329;SDS011;9799;48.214;16.388;2024-02-23T15:03:09;3.70;;;3.17;;
19329;SDS011;9799;48.214;16.388;2024-02-23T15:06:30;3.50;;;2.77;;
19329;SDS011;9799;48.214;16.388;2024-02-23T15:09:51;6.93;;;4.03;;
19329;SDS011;9799;48.214;16.388;2024-02-23T15:13:14;3.80;;;3.30;;
19329;SDS011;9799;48.214;16.388;2024-02-23T15:16:35;3.47;;;3.13;;
19329;SDS011;9799;48.214;16.388;2024-02-23T15:19:57;14.60;;;8.43;;
19329;SDS011;9799;48.214;16.388;2024-02-23T15:23:18;5.73;;;5.13;;
19329;SDS011;9799;48.214;16.388;2024-02-23T15:26:41;7.17;;;3.93;;
19329;SDS011;9799;48.214;16.388;2024-02-23T15:30:03;4.67;;;3.57;;
19329;SDS011;9799;48.214;16.388;2024-02-23T15:33:27;4.37;;;3.23;;
19329;SDS011;9799;48.214;16.388;2024-02-23T15:36:48;4.60;;;3.70;;
19329;SDS011;9799;48.214;16.388;2024-02-23T15:40:10;5.47;;;4.67;;
19329;SDS011;9799;48.214;16.388;2024-02-23T15:43:31;4.40;;;3.57;;
19329;SDS011;9799;48.214;16.388;2024-02-23T15:46:54;7.80;;;5.93;;
19329;SDS011;9799;48.214;16.388;2024-02-23T15:50:15;6.83;;;4.70;;
19329;SDS011;9799;48.214;16.388;2024-02-23T15:53:38;4.17;;;3.77;;
19329;SDS011;9799;48.214;16.388;2024-02-23T15:56:59;6.97;;;5.00;;
19329;SDS011;9799;48.214;16.388;2024-02-23T16:00:20;7.97;;;4.27;;
19329;SDS011;9799;48.214;16.388;2024-02-23T16:03:43;5.13;;;4.13;;
19329;SDS011;9799;48.214;16.388;2024-02-23T16:07:04;5.63;;;4.57;;
19329;SDS011;9799;48.214;16.388;2024-02-23T16:10:26;5.20;;;4.17;;
19329;SDS011;9799;48.214;16.388;2024-02-23T16:13:47;7.00;;;4.30;;
19329;SDS011;9799;48.214;16.388;2024-02-23T16:17:08;9.13;;;7.13;;
19329;SDS011;9799;48.214;16.388;2024-02-23T16:20:31;7.00;;;5.50;;
19329;SDS011;9799;48.214;16.388;2024-02-23T16:23:53;7.03;;;5.27;;
19329;SDS011;9799;48.214;16.388;2024-02-23T16:27:15;4.90;;;4.40;;
19329;SDS011;9799;48.214;16.388;2024-02-23T16:30:37;7.27;;;4.80;;
19329;SDS011;9799;48.214;16.388;2024-02-23T16:33:59;4.93;;;4.43;;
19329;SDS011;9799;48.214;16.388;2024-02-23T16:37:21;7.73;;;4.73;;
19329;SDS011;9799;48.214;16.388;2024-02-23T16:40:43;5.73;;;4.70;;
19329;SDS011;9799;48.214;16.388;2024-02-23T16:44:04;6.17;;;5.20;;
19329;SDS011;9799;48.214;16.388;2024-02-23T16:47:25;6.20;;;5.53;;
19329;SDS011;9799;48.214;16.388;2024-02-23T16:50:48;5.63;;;4.67;;
19329;SDS011;9799;48.214;16.388;2024-02-23T16:54:10;5.30;;;4.53;;
19329;SDS011;9799;48.214;16.388;2024-02-23T16:57:32;6.17;;;4.67;;
19329;SDS011;9799;48.214;16.388;2024-02-23T17:00:54;4.13;;;3.73;;
19329;SDS011;9799;48.214;16.388;2024-02-23T17:04:16;5.57;;;4.80;;
19329;SDS011;9799;48.214;16.388;2024-02-23T17:07:37;5.83;;;5.23;;
19329;SDS011;9799;48.214;16.388;2024-02-23T17:10:59;5.80;;;4.13;;
19329;SDS011;9799;48.214;16.388;2024-02-23T17:14:20;7.43;;;5.20;;
19329;SDS011;9799;48.214;16.388;2024-02-23T17:17:42;6.70;;;5.47;;
19329;SDS011;9799;48.214;16.388;2024-02-23T17:21:03;6.00;;;5.00;;
19329;SDS011;9799;48.214;16.388;2024-02-23T17:24:25;4.93;;;4.47;;
19329;SDS011;9799;48.214;16.388;2024-02-23T17:27:47;8.23;;;5.47;;
19329;SDS011;9799;48.214;16.388;2024-02-23T17:31:11;6.87;;;5.80;;
19329;SDS011;9799;48.214;16.388;2024-02-23T17:34:32;6.70;;;5.57;;
19329;SDS011;9799;48.214;16.388;2024-02-23T17:37:53;6.40;;;5.67;;
19329;SDS011;9799;48.214;16.388;2024-02-23T17:41:14;6.53;;;5.47;;
19329;SDS011;9799;48.214;16.388;2024-02-23T17:44:37;6.63;;;5.70;;
19329;SDS011;9799;48.214;16.388;2024-02-23T17:47:58;7.03;;;5.40;;
19329;SDS011;9799;48.214;16.388;2024-02-23T17:51:20;6.33;;;5.50;;
19329;SDS011;9799;48.214;16.388;2024-02-23T17:54:41;7.40;;;5.50;;
19329;SDS011;9799;48.214;16.388;2024-02-23T17:58:02;8.10;;;5.70;;
19329;SDS011;9799;48.214;16.388;2024-02-23T18:01:25;8.53;;;5.37;;
19329;SDS011;9799;48.214;16.388;2024-02-23T18:04:46;8.17;;;6.20;;
19329;SDS011;9799;48.214;16.388;2024-02-23T18:08:08;6.23;;;5.37;;
19329;SDS011;9799;48.214;16.388;2024-02-23T18:11:29;7.70;;;6.13;;
19329;SDS011;9799;48.214;16.388;2024-02-23T18:14:50;6.60;;;5.67;;
19329;SDS011;9799;48.214;16.388;2024-02-23T18:18:13;6.73;;;6.03;;
19329;SDS011;9799;48.214;16.388;2024-02-23T18:21:34;6.83;;;6.10;;
19329;SDS011;9799;48.214;16.388;2024-02-23T18:24:55;6.87;;;6.00;;
19329;SDS011;9799;48.214;16.388;2024-02-23T18:28:16;7.17;;;6.20;;
19329;SDS011;9799;48.214;16.388;2024-02-23T18:31:37;8.47;;;6.13;;
19329;SDS011;9799;48.214;16.388;2024-02-23T18:35:00;7.50;;;6.40;;
19329;SDS011;9799;48.214;16.388;2024-02-23T18:38:22;8.50;;;6.20;;
19329;SDS011;9799;48.214;16.388;2024-02-23T18:41:44;7.43;;;6.03;;
19329;SDS011;9799;48.214;16.388;2024-02-23T18:45:05;7.27;;;6.50;;
19329;SDS011;9799;48.214;16.388;2024-02-23T18:48:27;7.73;;;6.50;;
19329;SDS011;9799;48.214;16.388;2024-02-23T18:51:49;8.90;;;6.53;;
19329;SDS011;9799;48.214;16.388;2024-02-23T18:55:11;12.77;;;7.40;;
19329;SDS011;9799;48.214;16.388;2024-02-23T18:58:32;7.17;;;6.23;;
19329;SDS011;9799;48.214;16.388;2024-02-23T19:01:53;8.63;;;6.43;;
19329;SDS011;9799;48.214;16.388;2024-02-23T19:05:14;8.87;;;7.47;;
19329;SDS011;9799;48.214;16.388;2024-02-23T19:08:37;12.50;;;10.03;;
19329;SDS011;9799;48.214;16.388;2024-02-23T19:11:58;7.87;;;7.07;;
19329;SDS011;9799;48.214;16.388;2024-02-23T19:15:21;7.67;;;6.67;;
19329;SDS011;9799;48.214;16.388;2024-02-23T19:18:42;8.50;;;6.87;;
19329;SDS011;9799;48.214;16.388;2024-02-23T19:22:03;7.73;;;5.30;;
19329;SDS011;9799;48.214;16.388;2024-02-23T19:25:26;5.47;;;4.97;;
19329;SDS011;9799;48.214;16.388;2024-02-23T19:28:47;4.53;;;3.50;;
19329;SDS011;9799;48.214;16.388;2024-02-23T19:32:09;3.00;;;2.80;;
19329;SDS011;9799;48.214;16.388;2024-02-23T19:35:31;4.40;;;2.53;;
19329;SDS011;9799;48.214;16.388;2024-02-23T19:38:52;2.33;;;1.80;;
19329;SDS011;9799;48.214;16.388;2024-02-23T19:42:14;2.30;;;2.10;;
19329;SDS011;9799;48.214;16.388;2024-02-23T19:45:35;2.47;;;2.07;;
19329;SDS011;9799;48.214;16.388;2024-02-23T19:48:57;2.13;;;1.77;;
19329;SDS011;9799;48.214;16.388;2024-02-23T19:52:18;2.00;;;1.80;;
19329;SDS011;9799;48.214;16.388;2024-02-23T19:55:39;2.27;;;1.70;;
19329;SDS011;9799;48.214;16.388;2024-02-23T19:59:02;1.50;;;1.40;;
19329;SDS011;9799;48.214;16.388;2024-02-23T20:02:23;1.77;;;1.60;;
19329;SDS011;9799;48.214;16.388;2024-02-23T20:05:45;1.50;;;1.37;;
19329;SDS011;9799;48.214;16.388;2024-02-23T20:09:06;1.53;;;1.43;;
19329;SDS011;9799;48.214;16.388;2024-02-23T20:12:29;1.37;;;1.10;;
19329;SDS011;9799;48.214;16.388;2024-02-23T20:15:52;1.07;;;1.00;;